Pulau Tioman — 3EYO9 — position and weather

sailwx.info

Track history (hours):
 
Tides and Currents Weather Stations Pressure Air Temp Water Temp Dewpoint Dewpoint Depression Visibility Wind Speed Wind Dir Waves Ship Positions

Pulau Tioman

Last reported at 2015-May-15 13:03 UTC. Time now 2015-May-27 17:47 UTC.
Position N 19°44' E 120°45'.
Warning: this ship's position is 12 days out of date.

Length 120 m; draft 6.4 m.

Type: Cargo ship. MMSI: 356613000.

Date/timePositionNaut miles runAvg speedWind from/ knotsBaromVisibWave heightAir tempDewpointWater temp
2015-May-15 13:03N 19°44' E 120°45'815.1
2015-May-15 12:33N 19°51' E 120°47'54911.9
2015-May-13 14:26N 28°42' E 123°18'7211.6
2015-May-13 08:11N 29°53' E 123°34'711.4
2015-May-13 07:31N 30°01' E 123°34'1211.2
2015-May-13 06:28N 30°12' E 123°30'2411.9
2015-May-13 04:27N 30°34' E 123°19'1212.3
2015-May-13 03:29N 30°45' E 123°13'2813.3
2015-May-13 01:24N 30°57' E 122°45'1214.3
2015-May-13 00:34N 30°59' E 122°31'1414.1
2015-May-12 23:34N 31°03' E 122°15'1211.9
2015-May-12 22:33N 31°05' E 122°01'1010.1
2015-May-12 21:33N 31°10' E 121°51'1010.4
2015-May-12 20:33N 31°18' E 121°43'2 2.2
2015-May-12 19:31N 31°19' E 121°41'0 0.0
2015-May-12 18:31N 31°19' E 121°41'0 0.0
2015-May-12 17:31N 31°19' E 121°41'0 0.0
2015-May-12 16:31N 31°19' E 121°41'0 0.0
2015-May-12 15:31N 31°19' E 121°41'0 0.0
2015-May-12 14:31N 31°19' E 121°41'0 0.0
2015-May-12 13:31N 31°19' E 121°41'0 0.1
2015-May-12 12:31N 31°19' E 121°41'0 0.1
2015-May-12 11:31N 31°19' E 121°41'0 0.0
2015-May-12 10:31N 31°19' E 121°41'0 0.1
2015-May-12 09:31N 31°19' E 121°41'0 0.3
2015-May-12 08:33N 31°20' E 121°41'1010.4
2015-May-12 07:33N 31°12' E 121°49'1212.2
2015-May-12 06:33N 31°05' E 122°01'1110.8
2015-May-12 05:33N 31°03' E 122°13'1211.8
2015-May-12 04:33N 31°01' E 122°27'50810.2
2015-May-10 02:33N 22°52' E 119°55'1414.4
2015-May-10 01:33N 22°37' E 119°55'1413.6
2015-May-10 00:33N 22°24' E 119°55'  
Track history (hours):
 
Tides and Currents Weather Stations Pressure Air Temp Water Temp Dewpoint Dewpoint Depression Visibility Wind Speed Wind Dir Waves Ship Positions

Pulau Tioman

Last reported at 2015-May-15 13:03 UTC. Time now 2015-May-27 17:47 UTC.
Position N 19°44' E 120°45'.
Warning: this ship's position is 12 days out of date.

Length 120 m; draft 6.4 m.

Type: Cargo ship. MMSI: 356613000.

Date/timePositionNaut miles runAvg speedWind from/ knotsBaromVisibWave heightAir tempDewpointWater temp
2015-May-15 13:03N 19°44' E 120°45'815.1
2015-May-15 12:33N 19°51' E 120°47'54911.9
2015-May-13 14:26N 28°42' E 123°18'7211.6
2015-May-13 08:11N 29°53' E 123°34'711.4
2015-May-13 07:31N 30°01' E 123°34'1211.2
2015-May-13 06:28N 30°12' E 123°30'2411.9
2015-May-13 04:27N 30°34' E 123°19'1212.3
2015-May-13 03:29N 30°45' E 123°13'2813.3
2015-May-13 01:24N 30°57' E 122°45'1214.3
2015-May-13 00:34N 30°59' E 122°31'1414.1
2015-May-12 23:34N 31°03' E 122°15'1211.9
2015-May-12 22:33N 31°05' E 122°01'1010.1
2015-May-12 21:33N 31°10' E 121°51'1010.4
2015-May-12 20:33N 31°18' E 121°43'2 2.2
2015-May-12 19:31N 31°19' E 121°41'0 0.0
2015-May-12 18:31N 31°19' E 121°41'0 0.0
2015-May-12 17:31N 31°19' E 121°41'0 0.0
2015-May-12 16:31N 31°19' E 121°41'0 0.0
2015-May-12 15:31N 31°19' E 121°41'0 0.0
2015-May-12 14:31N 31°19' E 121°41'0 0.0
2015-May-12 13:31N 31°19' E 121°41'0 0.1
2015-May-12 12:31N 31°19' E 121°41'0 0.1
2015-May-12 11:31N 31°19' E 121°41'0 0.0
2015-May-12 10:31N 31°19' E 121°41'0 0.1
2015-May-12 09:31N 31°19' E 121°41'0 0.3
2015-May-12 08:33N 31°20' E 121°41'1010.4
2015-May-12 07:33N 31°12' E 121°49'1212.2
2015-May-12 06:33N 31°05' E 122°01'1110.8
2015-May-12 05:33N 31°03' E 122°13'1211.8
2015-May-12 04:33N 31°01' E 122°27'50810.2
2015-May-10 02:33N 22°52' E 119°55'1414.4
2015-May-10 01:33N 22°37' E 119°55'1413.6
2015-May-10 00:33N 22°24' E 119°55'  

Dump ship's entire track history